Ferrol, Spain
Current Conditions -  °F | °C
As of 1:00 PM on Sunday 23 Nov 2014 (Local Time) from LECO Reporting Station
Moderate Rain Moderate Rain  
Wind Chill: 54°   Ceiling: 2500
Heat Index: 54°   Visibility: 4mi
Dew Point: 52°   Wind: 3mph
Humidity: 94%   Direction: 10°N
Pressure: 30"   Gusts: NA
Location:  43.48°N, 8.24°W
Report Text: LECO 231200Z 01003KT 330V060 6000 RA FEW007 SCT018 BKN025 12/11 Q1016 TEMPO 4000 RA BKN010
Loading
Personal Weather Stations






























Interactive Weather Map New forecast layout! Learn more

10-Day Weather Forecast

Advertisements
Track Severe Weather on mobile